sensor_id;sensor_type;location;lat;lon;timestamp;temperature;humidity
5940;DHT22;2995;-31.998;115.906;2023-07-29T00:01:35;15.30;99.90
5940;DHT22;2995;-31.998;115.906;2023-07-29T00:04:08;15.30;99.90
5940;DHT22;2995;-31.998;115.906;2023-07-29T00:06:39;15.30;99.90
5940;DHT22;2995;-31.998;115.906;2023-07-29T00:09:10;15.20;99.90
5940;DHT22;2995;-31.998;115.906;2023-07-29T00:11:41;15.20;99.90
5940;DHT22;2995;-31.998;115.906;2023-07-29T00:14:13;15.20;99.90
5940;DHT22;2995;-31.998;115.906;2023-07-29T00:16:46;15.20;99.90
5940;DHT22;2995;-31.998;115.906;2023-07-29T00:19:17;15.30;99.90
5940;DHT22;2995;-31.998;115.906;2023-07-29T00:21:51;15.30;99.90
5940;DHT22;2995;-31.998;115.906;2023-07-29T00:24:22;15.30;99.90
5940;DHT22;2995;-31.998;115.906;2023-07-29T00:26:53;15.30;99.90
5940;DHT22;2995;-31.998;115.906;2023-07-29T00:29:25;15.40;99.90
5940;DHT22;2995;-31.998;115.906;2023-07-29T00:31:58;15.30;99.90
5940;DHT22;2995;-31.998;115.906;2023-07-29T00:34:29;15.40;99.90
5940;DHT22;2995;-31.998;115.906;2023-07-29T00:37:00;15.40;99.90
5940;DHT22;2995;-31.998;115.906;2023-07-29T00:39:31;15.40;99.90
5940;DHT22;2995;-31.998;115.906;2023-07-29T00:42:03;15.40;99.90
5940;DHT22;2995;-31.998;115.906;2023-07-29T00:44:34;15.50;99.90
5940;DHT22;2995;-31.998;115.906;2023-07-29T00:47:08;15.50;99.90
5940;DHT22;2995;-31.998;115.906;2023-07-29T00:49:39;15.60;99.90
5940;DHT22;2995;-31.998;115.906;2023-07-29T00:52:11;15.70;99.90
5940;DHT22;2995;-31.998;115.906;2023-07-29T00:54:42;15.70;99.90
5940;DHT22;2995;-31.998;115.906;2023-07-29T00:57:15;15.70;99.90
5940;DHT22;2995;-31.998;115.906;2023-07-29T00:59:47;15.80;99.90
5940;DHT22;2995;-31.998;115.906;2023-07-29T01:02:20;15.90;99.90
5940;DHT22;2995;-31.998;115.906;2023-07-29T01:04:54;15.90;99.90
5940;DHT22;2995;-31.998;115.906;2023-07-29T01:07:33;16.00;99.90
5940;DHT22;2995;-31.998;115.906;2023-07-29T01:10:13;16.00;99.90
5940;DHT22;2995;-31.998;115.906;2023-07-29T01:12:54;16.20;99.90
5940;DHT22;2995;-31.998;115.906;2023-07-29T01:15:28;16.20;99.90
5940;DHT22;2995;-31.998;115.906;2023-07-29T01:18:04;16.20;99.90
5940;DHT22;2995;-31.998;115.906;2023-07-29T01:20:39;16.40;99.90
5940;DHT22;2995;-31.998;115.906;2023-07-29T01:23:11;16.60;99.90
5940;DHT22;2995;-31.998;115.906;2023-07-29T01:25:44;16.70;99.90
5940;DHT22;2995;-31.998;115.906;2023-07-29T01:28:16;16.70;99.90
5940;DHT22;2995;-31.998;115.906;2023-07-29T01:30:51;16.70;99.90
5940;DHT22;2995;-31.998;115.906;2023-07-29T01:33:26;16.80;99.90
5940;DHT22;2995;-31.998;115.906;2023-07-29T01:36:06;16.80;99.90
5940;DHT22;2995;-31.998;115.906;2023-07-29T01:38:40;16.80;99.90
5940;DHT22;2995;-31.998;115.906;2023-07-29T01:41:15;16.80;99.90
5940;DHT22;2995;-31.998;115.906;2023-07-29T01:43:47;16.90;99.90
5940;DHT22;2995;-31.998;115.906;2023-07-29T01:46:19;16.90;99.90
5940;DHT22;2995;-31.998;115.906;2023-07-29T01:48:51;17.00;99.90
5940;DHT22;2995;-31.998;115.906;2023-07-29T01:51:22;17.00;99.90
5940;DHT22;2995;-31.998;115.906;2023-07-29T01:53:53;17.00;99.90
5940;DHT22;2995;-31.998;115.906;2023-07-29T01:56:29;17.10;99.90
5940;DHT22;2995;-31.998;115.906;2023-07-29T01:59:00;17.20;99.90
5940;DHT22;2995;-31.998;115.906;2023-07-29T02:01:31;17.10;99.90
5940;DHT22;2995;-31.998;115.906;2023-07-29T02:04:02;17.20;99.90
5940;DHT22;2995;-31.998;115.906;2023-07-29T02:06:33;17.20;99.90
5940;DHT22;2995;-31.998;115.906;2023-07-29T02:09:05;17.10;99.90
5940;DHT22;2995;-31.998;115.906;2023-07-29T02:11:38;17.20;99.90
5940;DHT22;2995;-31.998;115.906;2023-07-29T02:14:13;17.40;99.90
5940;DHT22;2995;-31.998;115.906;2023-07-29T02:16:44;17.40;99.90
5940;DHT22;2995;-31.998;115.906;2023-07-29T02:19:16;17.50;99.90
5940;DHT22;2995;-31.998;115.906;2023-07-29T02:21:47;17.50;99.90
5940;DHT22;2995;-31.998;115.906;2023-07-29T02:24:18;17.60;99.90
5940;DHT22;2995;-31.998;115.906;2023-07-29T02:26:51;17.70;99.90
5940;DHT22;2995;-31.998;115.906;2023-07-29T02:29:23;17.60;99.90
5940;DHT22;2995;-31.998;115.906;2023-07-29T02:31:54;17.60;99.90
5940;DHT22;2995;-31.998;115.906;2023-07-29T02:34:26;17.80;99.90
5940;DHT22;2995;-31.998;115.906;2023-07-29T02:36:57;17.70;99.90
5940;DHT22;2995;-31.998;115.906;2023-07-29T02:39:28;17.80;99.90
5940;DHT22;2995;-31.998;115.906;2023-07-29T02:42:01;17.80;99.90
5940;DHT22;2995;-31.998;115.906;2023-07-29T02:44:32;17.70;99.90
5940;DHT22;2995;-31.998;115.906;2023-07-29T02:47:04;17.70;99.90
5940;DHT22;2995;-31.998;115.906;2023-07-29T02:49:35;17.50;99.90
5940;DHT22;2995;-31.998;115.906;2023-07-29T02:52:06;17.50;99.90
5940;DHT22;2995;-31.998;115.906;2023-07-29T02:54:38;17.70;99.90
5940;DHT22;2995;-31.998;115.906;2023-07-29T02:57:11;17.80;99.90
5940;DHT22;2995;-31.998;115.906;2023-07-29T02:59:42;18.10;99.90
5940;DHT22;2995;-31.998;115.906;2023-07-29T03:02:13;18.30;99.90
5940;DHT22;2995;-31.998;115.906;2023-07-29T03:04:45;18.50;99.90
5940;DHT22;2995;-31.998;115.906;2023-07-29T03:07:18;18.60;99.90
5940;DHT22;2995;-31.998;115.906;2023-07-29T03:09:49;18.70;99.90
5940;DHT22;2995;-31.998;115.906;2023-07-29T03:12:23;18.60;99.90
5940;DHT22;2995;-31.998;115.906;2023-07-29T03:14:54;18.70;99.90
5940;DHT22;2995;-31.998;115.906;2023-07-29T03:17:25;18.60;99.90
5940;DHT22;2995;-31.998;115.906;2023-07-29T03:19:58;18.70;99.90
5940;DHT22;2995;-31.998;115.906;2023-07-29T03:22:29;19.00;99.90
5940;DHT22;2995;-31.998;115.906;2023-07-29T03:25:00;18.90;99.90
5940;DHT22;2995;-31.998;115.906;2023-07-29T03:27:33;18.70;99.90
5940;DHT22;2995;-31.998;115.906;2023-07-29T03:30:05;18.60;99.90
5940;DHT22;2995;-31.998;115.906;2023-07-29T03:32:38;18.80;99.90
5940;DHT22;2995;-31.998;115.906;2023-07-29T03:35:10;18.80;99.90
5940;DHT22;2995;-31.998;115.906;2023-07-29T03:37:41;18.60;99.90
5940;DHT22;2995;-31.998;115.906;2023-07-29T03:40:13;18.60;99.90
5940;DHT22;2995;-31.998;115.906;2023-07-29T03:42:46;18.60;99.90
5940;DHT22;2995;-31.998;115.906;2023-07-29T03:45:17;18.50;99.90
5940;DHT22;2995;-31.998;115.906;2023-07-29T03:47:48;18.60;99.90
5940;DHT22;2995;-31.998;115.906;2023-07-29T03:50:20;18.80;99.90
5940;DHT22;2995;-31.998;115.906;2023-07-29T03:52:51;19.00;99.90
5940;DHT22;2995;-31.998;115.906;2023-07-29T03:55:22;19.10;99.90
5940;DHT22;2995;-31.998;115.906;2023-07-29T03:57:56;19.20;99.90
5940;DHT22;2995;-31.998;115.906;2023-07-29T04:00:27;19.20;99.90
5940;DHT22;2995;-31.998;115.906;2023-07-29T04:02:58;19.20;99.90
5940;DHT22;2995;-31.998;115.906;2023-07-29T04:05:30;19.20;99.90
5940;DHT22;2995;-31.998;115.906;2023-07-29T04:08:01;19.20;99.90
5940;DHT22;2995;-31.998;115.906;2023-07-29T04:10:32;19.20;99.90
5940;DHT22;2995;-31.998;115.906;2023-07-29T04:13:05;19.10;99.90
5940;DHT22;2995;-31.998;115.906;2023-07-29T04:15:36;18.90;99.90
5940;DHT22;2995;-31.998;115.906;2023-07-29T04:18:08;19.00;99.90
5940;DHT22;2995;-31.998;115.906;2023-07-29T04:20:39;19.00;99.90
5940;DHT22;2995;-31.998;115.906;2023-07-29T04:23:10;19.00;99.90
5940;DHT22;2995;-31.998;115.906;2023-07-29T04:25:41;18.70;99.90
5940;DHT22;2995;-31.998;115.906;2023-07-29T04:28:14;18.80;99.90
5940;DHT22;2995;-31.998;115.906;2023-07-29T04:30:46;18.70;99.90
5940;DHT22;2995;-31.998;115.906;2023-07-29T04:33:18;18.70;99.90
5940;DHT22;2995;-31.998;115.906;2023-07-29T04:35:49;18.70;99.90
5940;DHT22;2995;-31.998;115.906;2023-07-29T04:38:20;18.90;99.90
5940;DHT22;2995;-31.998;115.906;2023-07-29T04:40:51;18.90;99.90
5940;DHT22;2995;-31.998;115.906;2023-07-29T04:43:28;18.80;99.90
5940;DHT22;2995;-31.998;115.906;2023-07-29T04:45:59;18.60;99.90
5940;DHT22;2995;-31.998;115.906;2023-07-29T04:48:30;18.30;99.90
5940;DHT22;2995;-31.998;115.906;2023-07-29T04:51:01;18.20;99.90
5940;DHT22;2995;-31.998;115.906;2023-07-29T04:53:32;18.10;99.90
5940;DHT22;2995;-31.998;115.906;2023-07-29T04:56:04;18.40;99.90
5940;DHT22;2995;-31.998;115.906;2023-07-29T04:58:38;18.40;99.90
5940;DHT22;2995;-31.998;115.906;2023-07-29T05:01:09;18.50;99.90
5940;DHT22;2995;-31.998;115.906;2023-07-29T05:03:40;18.60;99.90
5940;DHT22;2995;-31.998;115.906;2023-07-29T05:06:11;18.20;99.90
5940;DHT22;2995;-31.998;115.906;2023-07-29T05:08:43;17.40;99.90
5940;DHT22;2995;-31.998;115.906;2023-07-29T05:11:14;17.00;99.90
5940;DHT22;2995;-31.998;115.906;2023-07-29T05:13:47;17.00;99.90
5940;DHT22;2995;-31.998;115.906;2023-07-29T05:16:19;16.90;99.90
5940;DHT22;2995;-31.998;115.906;2023-07-29T05:18:50;16.80;99.90
5940;DHT22;2995;-31.998;115.906;2023-07-29T05:21:21;17.00;99.90
5940;DHT22;2995;-31.998;115.906;2023-07-29T05:23:52;17.10;99.90
5940;DHT22;2995;-31.998;115.906;2023-07-29T05:26:23;17.30;99.90
5940;DHT22;2995;-31.998;115.906;2023-07-29T05:28:57;17.30;99.90
5940;DHT22;2995;-31.998;115.906;2023-07-29T05:31:28;17.20;99.90
5940;DHT22;2995;-31.998;115.906;2023-07-29T05:33:59;17.40;99.90
5940;DHT22;2995;-31.998;115.906;2023-07-29T05:36:31;17.40;99.90
5940;DHT22;2995;-31.998;115.906;2023-07-29T05:39:02;17.50;99.90
5940;DHT22;2995;-31.998;115.906;2023-07-29T05:41:33;17.70;99.90
5940;DHT22;2995;-31.998;115.906;2023-07-29T05:44:06;17.80;99.90
5940;DHT22;2995;-31.998;115.906;2023-07-29T05:46:38;17.80;99.90
5940;DHT22;2995;-31.998;115.906;2023-07-29T05:49:09;18.00;99.90
5940;DHT22;2995;-31.998;115.906;2023-07-29T05:51:40;17.90;99.90
5940;DHT22;2995;-31.998;115.906;2023-07-29T05:54:11;17.80;99.90
5940;DHT22;2995;-31.998;115.906;2023-07-29T05:56:42;17.80;99.90
5940;DHT22;2995;-31.998;115.906;2023-07-29T05:59:16;17.80;99.90
5940;DHT22;2995;-31.998;115.906;2023-07-29T06:01:47;17.80;99.90
5940;DHT22;2995;-31.998;115.906;2023-07-29T06:04:18;17.70;99.90
5940;DHT22;2995;-31.998;115.906;2023-07-29T06:06:49;17.60;99.90
5940;DHT22;2995;-31.998;115.906;2023-07-29T06:09:20;17.60;99.90
5940;DHT22;2995;-31.998;115.906;2023-07-29T06:11:53;17.70;99.90
5940;DHT22;2995;-31.998;115.906;2023-07-29T06:14:26;17.80;99.90
5940;DHT22;2995;-31.998;115.906;2023-07-29T06:16:57;17.70;99.90
5940;DHT22;2995;-31.998;115.906;2023-07-29T06:19:28;17.60;99.90
5940;DHT22;2995;-31.998;115.906;2023-07-29T06:22:00;17.50;99.90
5940;DHT22;2995;-31.998;115.906;2023-07-29T06:24:32;17.40;99.90
5940;DHT22;2995;-31.998;115.906;2023-07-29T06:27:03;17.50;99.90
5940;DHT22;2995;-31.998;115.906;2023-07-29T06:29:37;17.50;99.90
5940;DHT22;2995;-31.998;115.906;2023-07-29T06:32:08;17.50;99.90
5940;DHT22;2995;-31.998;115.906;2023-07-29T06:34:40;17.60;99.90
5940;DHT22;2995;-31.998;115.906;2023-07-29T06:37:11;17.40;99.90
5940;DHT22;2995;-31.998;115.906;2023-07-29T06:39:42;17.50;99.90
5940;DHT22;2995;-31.998;115.906;2023-07-29T06:42:13;17.50;99.90
5940;DHT22;2995;-31.998;115.906;2023-07-29T06:44:47;17.50;99.90
5940;DHT22;2995;-31.998;115.906;2023-07-29T06:47:18;17.50;99.90
5940;DHT22;2995;-31.998;115.906;2023-07-29T06:49:49;17.60;99.90
5940;DHT22;2995;-31.998;115.906;2023-07-29T06:52:21;17.70;99.90
5940;DHT22;2995;-31.998;115.906;2023-07-29T06:54:52;17.80;99.90
5940;DHT22;2995;-31.998;115.906;2023-07-29T06:57:23;17.70;99.90
5940;DHT22;2995;-31.998;115.906;2023-07-29T06:59:56;17.70;99.90
5940;DHT22;2995;-31.998;115.906;2023-07-29T07:02:27;17.70;99.90
5940;DHT22;2995;-31.998;115.906;2023-07-29T07:04:59;17.60;99.90
5940;DHT22;2995;-31.998;115.906;2023-07-29T07:07:30;17.60;99.90
5940;DHT22;2995;-31.998;115.906;2023-07-29T07:10:01;17.60;99.90
5940;DHT22;2995;-31.998;115.906;2023-07-29T07:12:32;17.70;99.90
5940;DHT22;2995;-31.998;115.906;2023-07-29T07:15:06;17.80;99.90
5940;DHT22;2995;-31.998;115.906;2023-07-29T07:17:38;17.80;99.90
5940;DHT22;2995;-31.998;115.906;2023-07-29T07:20:09;17.80;99.90
5940;DHT22;2995;-31.998;115.906;2023-07-29T07:22:41;17.70;99.90
5940;DHT22;2995;-31.998;115.906;2023-07-29T07:25:12;17.70;99.90
5940;DHT22;2995;-31.998;115.906;2023-07-29T07:27:43;17.60;99.90
5940;DHT22;2995;-31.998;115.906;2023-07-29T07:30:17;17.50;99.90
5940;DHT22;2995;-31.998;115.906;2023-07-29T07:32:48;17.40;99.90
5940;DHT22;2995;-31.998;115.906;2023-07-29T07:35:20;17.30;99.90
5940;DHT22;2995;-31.998;115.906;2023-07-29T07:37:51;17.30;99.90
5940;DHT22;2995;-31.998;115.906;2023-07-29T07:40:22;17.30;99.90
5940;DHT22;2995;-31.998;115.906;2023-07-29T07:42:53;17.20;99.90
5940;DHT22;2995;-31.998;115.906;2023-07-29T07:45:27;17.20;99.90
5940;DHT22;2995;-31.998;115.906;2023-07-29T07:47:58;17.30;99.90
5940;DHT22;2995;-31.998;115.906;2023-07-29T07:50:31;17.40;99.90
5940;DHT22;2995;-31.998;115.906;2023-07-29T07:53:02;17.40;99.90
5940;DHT22;2995;-31.998;115.906;2023-07-29T07:55:33;17.40;99.90
5940;DHT22;2995;-31.998;115.906;2023-07-29T07:58:04;17.50;99.90
5940;DHT22;2995;-31.998;115.906;2023-07-29T08:00:37;17.20;99.90
5940;DHT22;2995;-31.998;115.906;2023-07-29T08:03:09;17.20;99.90
5940;DHT22;2995;-31.998;115.906;2023-07-29T08:05:40;17.20;99.90
5940;DHT22;2995;-31.998;115.906;2023-07-29T08:08:11;17.10;99.90
5940;DHT22;2995;-31.998;115.906;2023-07-29T08:10:43;17.00;99.90
5940;DHT22;2995;-31.998;115.906;2023-07-29T08:13:14;17.00;99.90
5940;DHT22;2995;-31.998;115.906;2023-07-29T08:15:50;17.00;99.90
5940;DHT22;2995;-31.998;115.906;2023-07-29T08:18:21;16.80;99.90
5940;DHT22;2995;-31.998;115.906;2023-07-29T08:20:55;16.90;99.90
5940;DHT22;2995;-31.998;115.906;2023-07-29T08:23:31;16.90;99.90
5940;DHT22;2995;-31.998;115.906;2023-07-29T08:26:03;16.80;99.90
5940;DHT22;2995;-31.998;115.906;2023-07-29T08:28:37;17.00;99.90
5940;DHT22;2995;-31.998;115.906;2023-07-29T08:31:10;16.80;99.90
5940;DHT22;2995;-31.998;115.906;2023-07-29T08:33:41;16.70;99.90
5940;DHT22;2995;-31.998;115.906;2023-07-29T08:36:13;16.60;99.90
5940;DHT22;2995;-31.998;115.906;2023-07-29T08:38:44;16.50;99.90
5940;DHT22;2995;-31.998;115.906;2023-07-29T08:41:16;16.60;99.90
5940;DHT22;2995;-31.998;115.906;2023-07-29T08:43:52;16.40;99.90
5940;DHT22;2995;-31.998;115.906;2023-07-29T08:46:29;16.50;99.90
5940;DHT22;2995;-31.998;115.906;2023-07-29T08:49:02;16.40;99.90
5940;DHT22;2995;-31.998;115.906;2023-07-29T08:51:33;16.50;99.90
5940;DHT22;2995;-31.998;115.906;2023-07-29T08:54:04;16.50;99.90
5940;DHT22;2995;-31.998;115.906;2023-07-29T08:56:36;16.40;99.90
5940;DHT22;2995;-31.998;115.906;2023-07-29T08:59:08;16.50;99.90
5940;DHT22;2995;-31.998;115.906;2023-07-29T09:01:42;16.40;99.90
5940;DHT22;2995;-31.998;115.906;2023-07-29T09:04:14;16.30;99.90
5940;DHT22;2995;-31.998;115.906;2023-07-29T09:06:47;16.40;99.90
5940;DHT22;2995;-31.998;115.906;2023-07-29T09:09:21;16.30;99.90
5940;DHT22;2995;-31.998;115.906;2023-07-29T09:11:52;16.20;99.90
5940;DHT22;2995;-31.998;115.906;2023-07-29T09:14:24;16.40;99.90
5940;DHT22;2995;-31.998;115.906;2023-07-29T09:16:58;16.40;99.90
5940;DHT22;2995;-31.998;115.906;2023-07-29T09:19:32;16.30;99.90
5940;DHT22;2995;-31.998;115.906;2023-07-29T09:22:11;16.30;99.90
5940;DHT22;2995;-31.998;115.906;2023-07-29T09:24:47;16.30;99.90
5940;DHT22;2995;-31.998;115.906;2023-07-29T09:27:26;16.30;99.90
5940;DHT22;2995;-31.998;115.906;2023-07-29T09:29:59;16.20;99.90
5940;DHT22;2995;-31.998;115.906;2023-07-29T09:32:33;16.30;99.90
5940;DHT22;2995;-31.998;115.906;2023-07-29T09:35:11;16.30;99.90
5940;DHT22;2995;-31.998;115.906;2023-07-29T09:37:43;16.40;99.90
5940;DHT22;2995;-31.998;115.906;2023-07-29T09:40:16;16.40;99.90
5940;DHT22;2995;-31.998;115.906;2023-07-29T09:42:51;16.50;99.90
5940;DHT22;2995;-31.998;115.906;2023-07-29T09:45:23;16.50;99.90
5940;DHT22;2995;-31.998;115.906;2023-07-29T09:47:58;16.40;99.90
5940;DHT22;2995;-31.998;115.906;2023-07-29T09:50:29;16.40;99.90
5940;DHT22;2995;-31.998;115.906;2023-07-29T09:53:02;16.20;99.90
5940;DHT22;2995;-31.998;115.906;2023-07-29T09:55:35;16.20;99.90
5940;DHT22;2995;-31.998;115.906;2023-07-29T09:58:06;16.10;99.90
5940;DHT22;2995;-31.998;115.906;2023-07-29T10:00:37;16.00;99.90
5940;DHT22;2995;-31.998;115.906;2023-07-29T10:03:10;15.90;99.90
5940;DHT22;2995;-31.998;115.906;2023-07-29T10:05:42;15.80;99.90
5940;DHT22;2995;-31.998;115.906;2023-07-29T10:08:14;15.90;99.90
5940;DHT22;2995;-31.998;115.906;2023-07-29T10:10:45;15.80;99.90
5940;DHT22;2995;-31.998;115.906;2023-07-29T10:13:17;15.80;99.90
5940;DHT22;2995;-31.998;115.906;2023-07-29T10:15:49;15.90;99.90
5940;DHT22;2995;-31.998;115.906;2023-07-29T10:18:23;15.90;99.90
5940;DHT22;2995;-31.998;115.906;2023-07-29T10:20:56;15.80;99.90
5940;DHT22;2995;-31.998;115.906;2023-07-29T10:23:32;15.70;99.90
5940;DHT22;2995;-31.998;115.906;2023-07-29T10:26:04;15.70;99.90
5940;DHT22;2995;-31.998;115.906;2023-07-29T10:28:39;15.70;99.90
5940;DHT22;2995;-31.998;115.906;2023-07-29T10:31:11;15.60;99.90
5940;DHT22;2995;-31.998;115.906;2023-07-29T10:33:45;15.50;99.90
5940;DHT22;2995;-31.998;115.906;2023-07-29T10:36:17;15.40;99.90
5940;DHT22;2995;-31.998;115.906;2023-07-29T10:38:48;15.30;99.90
5940;DHT22;2995;-31.998;115.906;2023-07-29T10:41:20;15.30;99.90
5940;DHT22;2995;-31.998;115.906;2023-07-29T10:43:51;15.20;99.90
5940;DHT22;2995;-31.998;115.906;2023-07-29T10:46:23;15.30;99.90
5940;DHT22;2995;-31.998;115.906;2023-07-29T10:48:57;15.30;99.90
5940;DHT22;2995;-31.998;115.906;2023-07-29T10:51:29;15.40;99.90
5940;DHT22;2995;-31.998;115.906;2023-07-29T10:54:02;15.40;99.90
5940;DHT22;2995;-31.998;115.906;2023-07-29T10:56:35;15.30;99.90
5940;DHT22;2995;-31.998;115.906;2023-07-29T10:59:32;15.40;99.90
5940;DHT22;2995;-31.998;115.906;2023-07-29T11:02:15;15.30;99.90
5940;DHT22;2995;-31.998;115.906;2023-07-29T11:04:51;15.30;99.90
5940;DHT22;2995;-31.998;115.906;2023-07-29T11:07:24;15.30;99.90
5940;DHT22;2995;-31.998;115.906;2023-07-29T11:10:02;15.40;99.90
5940;DHT22;2995;-31.998;115.906;2023-07-29T11:12:46;15.30;99.90
5940;DHT22;2995;-31.998;115.906;2023-07-29T11:15:20;15.40;99.90
5940;DHT22;2995;-31.998;115.906;2023-07-29T11:17:53;15.30;99.90
5940;DHT22;2995;-31.998;115.906;2023-07-29T11:20:27;15.30;99.90
5940;DHT22;2995;-31.998;115.906;2023-07-29T11:22:59;15.50;99.90
5940;DHT22;2995;-31.998;115.906;2023-07-29T11:25:31;15.50;99.90
5940;DHT22;2995;-31.998;115.906;2023-07-29T11:28:04;15.40;99.90
5940;DHT22;2995;-31.998;115.906;2023-07-29T11:30:36;15.50;99.90
5940;DHT22;2995;-31.998;115.906;2023-07-29T11:33:09;15.40;99.90
5940;DHT22;2995;-31.998;115.906;2023-07-29T11:35:43;15.40;99.90
5940;DHT22;2995;-31.998;115.906;2023-07-29T11:38:17;15.30;99.90
5940;DHT22;2995;-31.998;115.906;2023-07-29T11:40:59;15.40;99.90
5940;DHT22;2995;-31.998;115.906;2023-07-29T11:43:34;15.50;99.90
5940;DHT22;2995;-31.998;115.906;2023-07-29T11:46:06;15.40;99.90
5940;DHT22;2995;-31.998;115.906;2023-07-29T11:48:38;15.30;99.90
5940;DHT22;2995;-31.998;115.906;2023-07-29T11:51:11;15.20;99.90
5940;DHT22;2995;-31.998;115.906;2023-07-29T11:53:43;15.30;99.90
5940;DHT22;2995;-31.998;115.906;2023-07-29T11:56:15;15.40;99.90
5940;DHT22;2995;-31.998;115.906;2023-07-29T11:58:47;15.40;99.90
5940;DHT22;2995;-31.998;115.906;2023-07-29T12:01:19;15.40;99.90
5940;DHT22;2995;-31.998;115.906;2023-07-29T12:03:50;15.30;99.90
5940;DHT22;2995;-31.998;115.906;2023-07-29T12:06:24;15.30;99.90
5940;DHT22;2995;-31.998;115.906;2023-07-29T12:08:57;15.30;99.90
5940;DHT22;2995;-31.998;115.906;2023-07-29T12:11:28;15.30;99.90
5940;DHT22;2995;-31.998;115.906;2023-07-29T12:14:00;15.30;99.90
5940;DHT22;2995;-31.998;115.906;2023-07-29T12:16:32;15.30;99.90
5940;DHT22;2995;-31.998;115.906;2023-07-29T12:19:13;15.20;99.90
5940;DHT22;2995;-31.998;115.906;2023-07-29T12:21:48;15.30;99.90
5940;DHT22;2995;-31.998;115.906;2023-07-29T12:24:19;15.20;99.90
5940;DHT22;2995;-31.998;115.906;2023-07-29T12:26:53;15.20;99.90
5940;DHT22;2995;-31.998;115.906;2023-07-29T12:29:24;15.30;99.90
5940;DHT22;2995;-31.998;115.906;2023-07-29T12:31:59;15.40;99.90
5940;DHT22;2995;-31.998;115.906;2023-07-29T12:34:31;15.40;99.90
5940;DHT22;2995;-31.998;115.906;2023-07-29T12:37:05;15.40;99.90
5940;DHT22;2995;-31.998;115.906;2023-07-29T12:39:41;15.60;99.90
5940;DHT22;2995;-31.998;115.906;2023-07-29T12:42:12;15.70;99.90
5940;DHT22;2995;-31.998;115.906;2023-07-29T12:44:43;15.70;99.90
5940;DHT22;2995;-31.998;115.906;2023-07-29T12:47:15;15.70;99.90
5940;DHT22;2995;-31.998;115.906;2023-07-29T12:49:46;15.70;99.90
5940;DHT22;2995;-31.998;115.906;2023-07-29T12:52:20;15.60;99.90
5940;DHT22;2995;-31.998;115.906;2023-07-29T12:54:51;15.50;99.90
5940;DHT22;2995;-31.998;115.906;2023-07-29T12:57:22;15.40;99.90
5940;DHT22;2995;-31.998;115.906;2023-07-29T12:59:54;15.30;99.90
5940;DHT22;2995;-31.998;115.906;2023-07-29T13:02:25;15.30;99.90
5940;DHT22;2995;-31.998;115.906;2023-07-29T13:04:56;15.30;99.90
5940;DHT22;2995;-31.998;115.906;2023-07-29T13:07:29;15.30;99.90
5940;DHT22;2995;-31.998;115.906;2023-07-29T13:10:01;15.50;99.90
5940;DHT22;2995;-31.998;115.906;2023-07-29T13:12:32;15.40;99.90
5940;DHT22;2995;-31.998;115.906;2023-07-29T13:15:04;15.30;99.90
5940;DHT22;2995;-31.998;115.906;2023-07-29T13:17:35;15.30;99.90
5940;DHT22;2995;-31.998;115.906;2023-07-29T13:20:08;15.30;99.90
5940;DHT22;2995;-31.998;115.906;2023-07-29T13:22:41;15.30;99.90
5940;DHT22;2995;-31.998;115.906;2023-07-29T13:25:13;15.30;99.90
5940;DHT22;2995;-31.998;115.906;2023-07-29T13:27:44;15.30;99.90
5940;DHT22;2995;-31.998;115.906;2023-07-29T13:30:19;15.30;99.90
5940;DHT22;2995;-31.998;115.906;2023-07-29T13:32:50;15.30;99.90
5940;DHT22;2995;-31.998;115.906;2023-07-29T13:35:21;15.20;99.90
5940;DHT22;2995;-31.998;115.906;2023-07-29T13:37:54;15.20;99.90
5940;DHT22;2995;-31.998;115.906;2023-07-29T13:40:25;15.30;99.90
5940;DHT22;2995;-31.998;115.906;2023-07-29T13:42:57;15.20;99.90
5940;DHT22;2995;-31.998;115.906;2023-07-29T13:45:28;15.20;99.90
5940;DHT22;2995;-31.998;115.906;2023-07-29T13:47:59;15.20;99.90
5940;DHT22;2995;-31.998;115.906;2023-07-29T13:50:30;15.20;99.90
5940;DHT22;2995;-31.998;115.906;2023-07-29T13:53:04;15.10;99.90
5940;DHT22;2995;-31.998;115.906;2023-07-29T13:55:35;15.20;99.90
5940;DHT22;2995;-31.998;115.906;2023-07-29T13:58:06;15.10;99.90
5940;DHT22;2995;-31.998;115.906;2023-07-29T14:00:37;15.10;99.90
5940;DHT22;2995;-31.998;115.906;2023-07-29T14:03:09;15.00;99.90
5940;DHT22;2995;-31.998;115.906;2023-07-29T14:05:40;14.90;99.90
5940;DHT22;2995;-31.998;115.906;2023-07-29T14:08:13;15.00;99.90
5940;DHT22;2995;-31.998;115.906;2023-07-29T14:10:44;14.80;99.90
5940;DHT22;2995;-31.998;115.906;2023-07-29T14:13:16;14.70;99.90
5940;DHT22;2995;-31.998;115.906;2023-07-29T14:15:47;14.80;99.90
5940;DHT22;2995;-31.998;115.906;2023-07-29T14:18:18;14.70;99.90
5940;DHT22;2995;-31.998;115.906;2023-07-29T14:20:50;14.50;99.90
5940;DHT22;2995;-31.998;115.906;2023-07-29T14:23:24;14.50;99.90
5940;DHT22;2995;-31.998;115.906;2023-07-29T14:25:56;14.50;99.90
5940;DHT22;2995;-31.998;115.906;2023-07-29T14:28:27;14.60;99.90
5940;DHT22;2995;-31.998;115.906;2023-07-29T14:30:58;14.60;99.90
5940;DHT22;2995;-31.998;115.906;2023-07-29T14:33:30;14.70;99.90
5940;DHT22;2995;-31.998;115.906;2023-07-29T14:36:01;14.60;99.90
5940;DHT22;2995;-31.998;115.906;2023-07-29T14:38:34;14.60;99.90
5940;DHT22;2995;-31.998;115.906;2023-07-29T14:41:06;14.50;99.90
5940;DHT22;2995;-31.998;115.906;2023-07-29T14:43:37;14.50;99.90
5940;DHT22;2995;-31.998;115.906;2023-07-29T14:46:08;14.50;99.90
5940;DHT22;2995;-31.998;115.906;2023-07-29T14:48:39;14.30;99.90
5940;DHT22;2995;-31.998;115.906;2023-07-29T14:51:11;14.30;99.90
5940;DHT22;2995;-31.998;115.906;2023-07-29T14:53:44;14.40;99.90
5940;DHT22;2995;-31.998;115.906;2023-07-29T14:56:15;14.40;99.90
5940;DHT22;2995;-31.998;115.906;2023-07-29T14:58:46;14.30;99.90
5940;DHT22;2995;-31.998;115.906;2023-07-29T15:01:18;14.40;99.90
5940;DHT22;2995;-31.998;115.906;2023-07-29T15:03:50;14.40;99.90
5940;DHT22;2995;-31.998;115.906;2023-07-29T15:06:21;14.60;99.90
5940;DHT22;2995;-31.998;115.906;2023-07-29T15:08:55;14.50;99.90
5940;DHT22;2995;-31.998;115.906;2023-07-29T15:11:26;14.70;99.90
5940;DHT22;2995;-31.998;115.906;2023-07-29T15:13:57;14.60;99.90
5940;DHT22;2995;-31.998;115.906;2023-07-29T15:16:29;14.60;99.90
5940;DHT22;2995;-31.998;115.906;2023-07-29T15:19:02;14.60;99.90
5940;DHT22;2995;-31.998;115.906;2023-07-29T15:21:33;14.70;99.90
5940;DHT22;2995;-31.998;115.906;2023-07-29T15:24:07;14.70;99.90
5940;DHT22;2995;-31.998;115.906;2023-07-29T15:26:38;14.70;99.90
5940;DHT22;2995;-31.998;115.906;2023-07-29T15:29:09;14.70;99.90
5940;DHT22;2995;-31.998;115.906;2023-07-29T15:31:41;14.90;99.90
5940;DHT22;2995;-31.998;115.906;2023-07-29T15:34:13;14.90;99.90
5940;DHT22;2995;-31.998;115.906;2023-07-29T15:36:44;14.90;99.90
5940;DHT22;2995;-31.998;115.906;2023-07-29T15:39:17;14.90;99.90
5940;DHT22;2995;-31.998;115.906;2023-07-29T15:41:48;14.80;99.90
5940;DHT22;2995;-31.998;115.906;2023-07-29T15:44:20;14.80;99.90
5940;DHT22;2995;-31.998;115.906;2023-07-29T15:46:51;14.70;99.90